Airport details for: LJLJ (Slovenia)

Metar

LJLJ 240700Z VRB02KT 9999 FEW050 25/19 Q1018 NOSIG

General details

ICAO: LJLJ
IATA: LJU
Name (city): Brnik
Major:
Country: Slovenia
vACC: vACC Slovenia
Description:
Scenery links:
FS9 scenery: Download
FSX/P3D scenery: Download
XP scenery: Download
Elevation: 1273 ft.
Transition altitude: 10500 ft.
MSA: 10800 ft.
Latitude: 46.224489
Longitude: 14.456047
LJLJ Charts
LJLJ Notams
LJLJ Online stations

Runways

Number Course Length Elevation Lat Lon ILS ILS freq ILS FAC GP
12 124° 10827ft / 3300 m 1274ft 46.232492 14.440392 - - 3.0°
30 304° 10827ft / 3300 m 1191ft 46.214878 14.474825 110.5 304° 3.0°